Station: YUNTA

  Atmospheric Gas Attenuation - ITU Rec 676-11   --------------- db/100km ---------------
Date Time Temp RH % AH g/m3 Dew Point Wind Direction Speed kph Gust kph Barometer mB Rainfall Since 9am 24GHz 47GHz 76GHz 122GHz 134GHz 241GHz
27 13:40 16.6 34 4.8 0.7 7 9 1013.1 0 11.4 19.6 24.8 64.4 49.9 168.8
27 13:30 16.4 33 4.61 0.1 9 13 1023.6 0 11.0 19.7 24.6 63.6 48.5 163.4
27 13:20 15.9 34 4.6 0 6 9 1013.1 0 11.0 19.4 24.3 63.1 48.2 162.5
27 13:10 16.1 35 4.8 0.6 6 7 1013.1 0 11.4 19.7 24.9 64.8 50.3 169.9
27 13:00 15.9 36 4.88 0.9 7 13 1024 0 11.6 20.2 25.6 66.5 51.8 175.1
27 12:50 15.9 36 4.88 0.8 9 11 1013.1 0 11.6 19.8 25.3 65.6 51.3 173.4
27 12:40 15.8 36 4.85 0.7 7 9 1013.1 0 11.6 19.8 25.2 65.4 51.0 172.4
27 12:30 15.5 37 4.89 0.9 4 9 1024.3 0 11.7 20.3 25.8 66.9 52.2 176.4
27 12:20 15 37 4.74 0.4 6 9 1013.1 0 11.4 19.8 25.1 65.1 50.3 169.8
27 12:10 15.7 38 5.08 1.4 19 22 1013.1 0 12.0 20.1 26.0 67.6 53.6 181.7
27 12:00 15.2 38 4.93 1 4 7 1024.9 0 11.8 20.4 26.1 67.6 52.8 178.7
27 11:50 14.4 39 4.82 0.6 4 6 1013.1 0 11.5 20.1 25.5 66.3 51.5 174.2
27 11:40 15.1 39 5.03 1.2 0 4 1013.1 0 12.0 20.2 26.0 67.6 53.5 181.0
27 11:30 14.5 42 5.22 1.8 6 11 1025.4 0 12.4 21.0 27.3 70.9 56.7 192.0
27 11:20 14 41 4.95 0.9 6 7 1013.1 0 11.8 20.3 26.1 67.8 53.3 180.2
27 11:10 13.8 43 5.12 1.4 6 7 1013.1 0 12.2 20.6 26.7 69.6 55.4 187.5
27 11:00 13.8 41 4.89 0.8 4 7 1025.7 0 11.7 20.7 26.4 68.4 53.3 180.3
27 10:50 13.7 42 4.97 1 6 7 1013.1 0 11.9 20.4 26.3 68.3 53.7 181.7
27 10:40 13.2 42 4.82 0.5 6 6 1013.1 0 11.6 20.3 25.9 67.3 52.3 176.8
27 10:30 13.4 44 5.12 1.4 4 11 1026.2 0 12.2 21.2 27.3 71.0 56.3 190.6
27 10:20 13.1 47 5.36 2 4 6 1013.1 0 12.7 21.1 27.8 72.4 58.7 199.0
27 10:10 12.6 47 5.2 1.6 6 9 1013.1 0 12.4 21.0 27.4 71.4 57.1 193.6
27 10:00 12.4 47 5.14 1.4 7 13 1026.4 0 12.3 21.4 27.8 72.1 57.3 193.9
27 09:50 12.1 50 5.36 2 6 7 1013.1 0 12.8 21.3 28.2 73.3 59.4 201.5
27 09:40 12.1 50 5.36 2 7 9 1013.1 0 12.8 21.3 28.2 73.3 59.4 201.5
27 09:30 11.7 51 5.33 1.9 9 15 1026.7 0 12.7 21.9 28.7 74.6 60.1 203.6
27 09:20 11.7 51 5.33 2.1 9 11 1013.1 0 12.7 21.4 28.2 73.4 59.3 201.2
27 09:10 11.2 54 5.47 2.2 9 11 1013.1 0 13.0 21.7 28.9 75.2 61.4 208.4
27 09:00 10.9 55 5.47 2.2 9 15 1026.8 0 13.0 22.3 29.5 76.7 62.4 211.7
27 08:50 10.9 55 5.47 2.4 11 13 1013.1 0.2 13.0 21.8 29.0 75.5 61.6 209.2
27 08:40 10.8 59 5.83 3.1 9 11 1013.1 0.2 13.8 22.4 30.4 79.2 66.1 224.9
27 08:30 10.2 59 5.62 2.6 7 13 1026.8 0.2 13.4 22.7 30.3 78.9 64.8 220.1
27 08:20 9.9 62 5.79 2.9 4 6 1013.1 0.2 13.7 22.5 30.5 79.7 66.4 225.7
27 08:10 9.2 63 5.63 2.5 6 7 1013.1 0.2 13.4 22.4 30.2 78.8 65.0 220.7
27 08:00 9.1 67 5.95 3.3 0 0 1026.7 0.2 14.1 23.5 32.0 83.4 69.9 237.9
27 07:50 8.3 68 5.73 2.7 0 0 1013.1 0.2 13.7 22.8 30.9 80.7 67.0 227.6
27 07:40 7.4 73 5.81 3 0 0 1013.1 0.2 13.9 23.2 31.6 82.4 68.8 233.8
27 07:30 6.5 76 5.7 2.6 0 0 1026.5 0.2 13.7 23.7 32.0 83.5 69.0 234.2
27 07:20 6.1 80 5.85 2.9 0 0 1013.1 0.2 14.0 23.6 32.3 84.2 70.5 239.6
27 07:10 5.6 81 5.73 2.7 0 0 1013.1 0.2 13.8 23.5 32.0 83.5 69.3 235.5
27 07:00 4.9 86 5.81 2.8 0 0 1026.2 0.2 14.0 24.3 33.1 86.3 71.9 244.1
27 06:50 4.1 89 5.7 2.4 0 0 1013.1 0.2 13.8 23.9 32.5 84.8 70.3 238.6
27 06:40 2.9 89 5.26 1.2 0 0 1013.1 0.2 12.9 23.5 31.2 81.3 65.4 221.4
27 06:30 2 89 4.95 0.4 0 0 1025.6 0.2 12.2 23.7 30.8 80.0 62.7 211.6
27 06:20 1.6 88 4.76 -0.1 0 0 1013.1 0.2 11.8 23.0 29.6 77.2 59.8 201.5
27 06:10 1.4 89 4.75 -0.2 0 0 1013.1 0.2 11.8 23.0 29.7 77.3 59.8 201.5
27 06:00 1.5 89 4.79 -0.1 0 0 1025.1 0.2 11.9 23.5 30.3 78.7 60.9 205.3
27 05:50 1.5 88 4.73 -0.3 0 0 1013.1 0.2 11.8 23.0 29.5 77.0 59.5 200.3
27 05:40 1.8 88 4.83 0 0 0 1013.1 0.2 12.0 23.0 29.8 77.7 60.6 204.2
27 05:30 1.7 88 4.8 -0.1 0 0 1024.7 0.2 11.9 23.5 30.2 78.6 60.9 205.1
27 05:10 2.3 88 5 0.5 0 0 1013.1 0.2 12.3 23.2 30.3 79.1 62.4 210.9
27 04:40 2.2 88 4.96 0.4 0 0 1013.1 0.2 12.2 23.2 30.2 78.7 62.0 209.3
27 04:30 1.8 86 4.72 -0.3 0 0 1024.1 0.2 11.7 23.3 29.8 77.5 59.7 201.0
27 04:20 2.2 86 4.85 0.1 0 0 1013.1 0.2 12.0 23.0 29.8 77.6 60.5 204.1
27 04:10 2.4 86 4.92 0.3 0 0 1013.1 0.2 12.1 23.0 30.0 78.1 61.3 206.9
27 04:00 2.7 86 5.02 0.6 0 0 1023.8 0.2 12.4 23.5 30.7 79.9 63.0 212.7
27 03:50 2.8 86 5.05 0.7 0 0 1013.1 0.2 12.4 23.1 30.3 79.1 62.7 211.9
27 03:40 2.8 86 5.05 0.7 0 0 1013.1 0.2 12.4 23.1 30.3 79.1 62.7 211.9
27 03:30 3 86 5.12 0.9 0 0 1023.6 0.2 12.6 23.6 31.0 80.6 64.1 216.6
27 03:20 3 85 5.06 0.7 0 0 1013.1 0.2 12.4 23.1 30.3 79.0 62.7 211.8
27 03:10 3.2 84 5.07 0.7 0 0 1013.1 0.2 12.4 23.1 30.3 78.9 62.6 211.7
27 03:00 4 84 5.35 1.5 0 0 1023.4 0.2 13.0 23.7 31.5 82.1 66.3 224.5
27 02:50 4.1 85 5.44 1.8 0 0 1013.1 0.2 13.2 23.4 31.4 82.0 66.8 226.4
27 02:40 3.8 85 5.34 1.6 0 0 1013.1 0.2 13.0 23.4 31.1 81.2 65.7 222.6
27 02:30 3.6 85 5.27 1.3 0 0 1023.4 0.2 12.9 23.7 31.3 81.6 65.6 221.9
27 02:20 3.7 85 5.3 1.5 0 0 1013.1 0.2 12.9 23.3 31.0 80.9 65.3 221.1
27 02:10 3.5 85 5.23 1.3 0 0 1013.1 0.2 12.8 23.3 30.8 80.3 64.5 218.3
27 02:00 3.2 84 5.07 0.8 4 4 1023.4 0.2 12.4 23.5 30.7 79.9 63.2 213.6
27 01:50 3.8 84 5.27 1.3 4 4 1013.1 0.2 12.9 23.2 30.8 80.5 64.8 219.4
27 01:40 3.8 84 5.27 1.3 0 0 1013.1 0.2 12.9 23.2 30.8 80.5 64.8 219.4
27 01:30 4 83 5.28 1.4 0 0 1023.5 0.2 12.9 23.6 31.2 81.3 65.4 221.3
27 01:20 4.4 82 5.36 1.6 0 0 1013.1 0.2 13.0 23.2 31.0 80.8 65.5 221.9
27 01:10 4.5 84 5.53 2 0 0 1013.1 0.2 13.4 23.5 31.6 82.5 67.7 229.5
27 01:00 4.3 83 5.39 1.7 0 0 1023.6 0.2 13.1 23.7 31.6 82.2 66.6 225.6
27 00:50 4.6 82 5.43 1.8 0 0 1013.1 0.2 13.2 23.3 31.2 81.3 66.2 224.5
27 00:40 4.6 81 5.36 1.6 0 0 1013.1 0.2 13.0 23.2 30.9 80.6 65.3 221.3
27 00:30 5 81 5.51 2 0 0 1023.6 0.2 13.3 23.7 31.8 82.7 67.6 229.2
27 00:20 5 79 5.37 1.6 0 0 1013.1 0.2 13.0 23.1 30.8 80.3 65.1 220.7
27 00:10 5.3 79 5.48 1.9 0 0 1013.1 0.2 13.3 23.2 31.1 81.2 66.3 224.9
27 00:00 5.6 79 5.59 2.3 0 0 1023.7 0.2 13.5 23.7 31.9 83.0 68.1 231.2
26 23:50 5.7 78 5.55 2.1 0 0 1013.1 0.2 13.4 23.2 31.2 81.5 66.9 226.9
26 23:40 6 76 5.52 2.1 0 0 1013.1 0.2 13.3 23.1 31.0 80.9 66.2 224.7
26 23:30 6.3 77 5.7 2.6 0 0 1023.6 0.2 13.7 23.7 32.0 83.4 69.0 234.2
26 23:20 6.1 76 5.56 2.3 0 0 1013.1 0.2 13.4 23.1 31.1 81.2 66.7 226.2
26 23:10 6 76 5.52 2.2 0 0 1013.1 0.2 13.3 23.1 31.0 80.9 66.2 224.7
26 23:00 6.3 75 5.55 2.2 0 2 1023.7 0.2 13.4 23.4 31.4 81.8 67.0 227.3
26 22:50 6.9 70 5.39 1.8 2 4 1013.1 0.2 13.0 22.6 30.1 78.6 63.8 216.3
26 22:40 7.6 68 5.48 2.2 6 7 1013.1 0.2 13.2 22.6 30.2 78.8 64.4 218.4
26 22:30 7.8 69 5.63 2.5 7 7 1023.5 0.2 13.5 23.2 31.1 81.1 66.7 226.6
26 22:20 8 67 5.54 2.2 7 7 1013.1 0.2 13.3 22.6 30.3 79.0 64.8 220.0
26 22:10 8.2 66 5.53 2.2 9 9 1013.1 0.2 13.3 22.5 30.2 78.7 64.5 219.0
26 22:00 8.2 67 5.61 2.4 7 9 1023.5 0.2 13.4 23.0 30.9 80.5 66.2 224.6
26 21:50 7.9 69 5.67 2.5 7 7 1013.1 0.2 13.6 22.8 30.8 80.5 66.6 226.1
26 21:40 7.7 67 5.44 1.9 7 7 1013.1 0.2 13.1 22.5 30.0 78.3 63.8 216.4
26 21:30 8.1 66 5.49 2.1 7 9 1023.4 0.2 13.2 22.9 30.5 79.3 64.7 219.5
26 21:20 8.2 65 5.45 2 7 7 1013.1 0.2 13.1 22.4 29.9 77.9 63.5 215.5
26 21:10 8.5 63 5.38 1.8 6 6 1013.1 0.2 12.9 22.2 29.5 76.9 62.4 211.6
26 21:00 9.1 61 5.41 2 7 7 1023.2 0.2 13.0 22.5 29.8 77.5 62.9 213.2
26 20:50 9.7 58 5.35 2 7 9 1013.1 0.2 12.8 21.9 29.0 75.5 61.1 207.1
26 20:40 10.1 55 5.2 1.4 9 9 1013.1 0.2 12.5 21.6 28.3 73.6 59.0 199.7

Last Refresh: 27-Sep-2020 13:58:24

Most of the information presented on this site is sourced from the Bureau of Meteorology.  Copyright in all material sourced from the Bureau of Meteorology resides with the Commonwealth of Australia.